createdAt,value
2018-09-03T00:02:25.276Z,6.17
2018-09-03T00:04:53.652Z,4.97
2018-09-03T00:07:22.078Z,5.60
2018-09-03T00:09:50.475Z,4.73
2018-09-03T00:12:18.825Z,6.07
2018-09-03T00:14:47.296Z,10.13
2018-09-03T00:17:15.642Z,5.60
2018-09-03T00:19:43.962Z,6.57
2018-09-03T00:22:12.263Z,4.53
2018-09-03T00:24:40.740Z,7.37
2018-09-03T00:27:09.070Z,5.80
2018-09-03T00:29:37.339Z,14.80
2018-09-03T00:32:10.277Z,8.50
2018-09-03T00:34:42.725Z,13.80
2018-09-03T00:37:15.202Z,7.10
2018-09-03T00:39:47.646Z,12.60
2018-09-03T00:42:21.693Z,10.00
2018-09-03T00:44:54.198Z,6.10
2018-09-03T00:47:22.504Z,6.87
2018-09-03T00:49:50.848Z,4.80
2018-09-03T00:52:19.464Z,6.13
2018-09-03T00:54:47.807Z,18.03
2018-09-03T00:57:16.161Z,8.90
2018-09-03T00:59:44.485Z,7.13
2018-09-03T01:02:13.258Z,18.00
2018-09-03T01:04:41.503Z,6.97
2018-09-03T01:07:09.919Z,12.73
2018-09-03T01:09:38.221Z,5.90
2018-09-03T01:12:06.725Z,10.73
2018-09-03T01:14:35.054Z,6.80
2018-09-03T01:17:03.393Z,8.83
2018-09-03T01:19:31.734Z,5.53
2018-09-03T01:22:00.108Z,12.70
2018-09-03T01:24:28.566Z,7.23
2018-09-03T01:26:56.815Z,5.80
2018-09-03T01:29:25.273Z,16.40
2018-09-03T01:31:56.994Z,8.60
2018-09-03T01:34:26.399Z,7.70
2018-09-03T01:36:54.709Z,6.43
2018-09-03T01:39:23.786Z,10.53
2018-09-03T01:41:52.058Z,7.90
2018-09-03T01:44:20.337Z,10.80
2018-09-03T01:46:48.720Z,17.93
2018-09-03T01:49:17.128Z,5.90
2018-09-03T01:51:45.819Z,10.33
2018-09-03T01:54:14.091Z,8.77
2018-09-03T01:56:42.460Z,10.80
2018-09-03T01:59:10.815Z,6.80
2018-09-03T02:01:39.134Z,6.30
2018-09-03T02:04:07.506Z,6.40
2018-09-03T02:06:35.894Z,6.50
2018-09-03T02:09:07.796Z,6.23
2018-09-03T02:11:36.120Z,6.67
2018-09-03T02:14:04.398Z,8.63
2018-09-03T02:16:33.987Z,8.30
2018-09-03T02:19:02.207Z,9.93
2018-09-03T02:21:30.528Z,6.23
2018-09-03T02:23:58.792Z,6.77
2018-09-03T02:26:27.067Z,6.20
2018-09-03T02:28:55.425Z,6.23
2018-09-03T02:31:24.282Z,12.03
2018-09-03T02:33:53.316Z,13.17
2018-09-03T02:36:21.781Z,13.70
2018-09-03T02:38:50.490Z,7.13
2018-09-03T02:41:19.595Z,5.30
2018-09-03T02:43:47.973Z,6.37
2018-09-03T02:46:16.650Z,7.27
2018-09-03T02:48:45.442Z,8.47
2018-09-03T02:51:14.319Z,6.70
2018-09-03T02:53:43.063Z,5.87
2018-09-03T02:56:11.788Z,5.70
2018-09-03T02:58:40.396Z,6.97
2018-09-03T03:01:09.474Z,6.43
2018-09-03T03:03:38.157Z,8.03
2018-09-03T03:06:07.128Z,6.83
2018-09-03T03:08:35.608Z,6.37
2018-09-03T03:11:04.252Z,6.20
2018-09-03T03:13:32.822Z,6.63
2018-09-03T03:16:01.466Z,5.33
2018-09-03T03:18:30.203Z,6.90
2018-09-03T03:20:59.072Z,7.47
2018-09-03T03:23:27.373Z,6.53
2018-09-03T03:25:55.685Z,6.33
2018-09-03T03:28:24.052Z,6.90
2018-09-03T03:30:52.435Z,14.17
2018-09-03T03:33:20.808Z,6.20
2018-09-03T03:35:49.269Z,7.47
2018-09-03T03:38:17.591Z,11.53
2018-09-03T03:40:45.897Z,9.47
2018-09-03T03:43:14.405Z,9.23
2018-09-03T03:45:42.962Z,8.83
2018-09-03T03:48:11.217Z,7.03
2018-09-03T03:50:39.641Z,13.00
2018-09-03T03:53:07.996Z,7.63
2018-09-03T03:55:36.232Z,7.40
2018-09-03T03:58:04.528Z,8.00
2018-09-03T04:00:33.000Z,9.70
2018-09-03T04:03:01.533Z,13.20
2018-09-03T04:05:29.817Z,10.37
2018-09-03T04:07:58.111Z,13.27
2018-09-03T04:10:26.498Z,9.60
2018-09-03T04:12:57.749Z,9.67
2018-09-03T04:15:26.267Z,9.53
2018-09-03T04:17:54.836Z,14.80
2018-09-03T04:20:23.169Z,15.20
2018-09-03T04:22:51.686Z,16.90
2018-09-03T04:25:20.020Z,13.43
2018-09-03T04:27:48.406Z,14.50
2018-09-03T04:30:16.948Z,18.23
2018-09-03T04:32:45.340Z,17.43
2018-09-03T04:35:14.071Z,17.13
2018-09-03T04:37:42.338Z,43.23
2018-09-03T04:40:10.677Z,87.60
2018-09-03T04:42:39.218Z,104.23
2018-09-03T04:45:07.577Z,59.03
2018-09-03T04:47:36.032Z,25.63
2018-09-03T04:50:04.457Z,48.23
2018-09-03T04:52:32.774Z,87.80
2018-09-03T04:55:01.108Z,105.93
2018-09-03T04:57:29.435Z,73.87
2018-09-03T04:59:57.858Z,56.73
2018-09-03T05:02:26.345Z,44.97
2018-09-03T05:04:54.957Z,36.07
2018-09-03T05:07:23.337Z,27.90
2018-09-03T05:09:51.774Z,24.40
2018-09-03T05:12:20.065Z,34.50
2018-09-03T05:14:48.501Z,35.30
2018-09-03T05:17:16.877Z,16.73
2018-09-03T05:19:45.219Z,9.67
2018-09-03T05:22:13.655Z,9.00
2018-09-03T05:24:42.160Z,13.20
2018-09-03T05:27:10.494Z,17.03
2018-09-03T05:29:38.838Z,19.40
2018-09-03T05:32:07.248Z,23.77
2018-09-03T05:34:35.572Z,27.93
2018-09-03T05:37:03.889Z,15.83
2018-09-03T05:39:32.244Z,12.33
2018-09-03T05:42:00.574Z,8.70
2018-09-03T05:44:28.995Z,10.73
2018-09-03T05:46:57.362Z,10.37
2018-09-03T05:49:25.776Z,9.93
2018-09-03T05:51:54.126Z,8.80
2018-09-03T05:54:22.542Z,10.07
2018-09-03T05:56:50.866Z,9.33
2018-09-03T05:59:19.569Z,9.27
2018-09-03T06:01:47.997Z,9.10
2018-09-03T06:04:16.266Z,13.20
2018-09-03T06:06:44.598Z,9.93
2018-09-03T06:09:13.347Z,9.43
2018-09-03T06:11:41.924Z,14.13
2018-09-03T06:14:10.208Z,9.03
2018-09-03T06:16:38.536Z,13.73
2018-09-03T06:19:06.855Z,9.40
2018-09-03T06:21:35.169Z,22.37
2018-09-03T06:24:03.495Z,13.63
2018-09-03T06:26:31.850Z,27.27
2018-09-03T06:29:00.268Z,12.10
2018-09-03T06:31:29.422Z,13.83
2018-09-03T06:33:57.745Z,16.37
2018-09-03T06:36:26.091Z,16.70
2018-09-03T06:38:54.448Z,14.53
2018-09-03T06:41:23.221Z,16.00
2018-09-03T06:43:51.540Z,10.60
2018-09-03T06:46:19.823Z,10.43
2018-09-03T06:48:48.499Z,15.03
2018-09-03T06:51:16.894Z,9.83
2018-09-03T06:53:45.286Z,15.00
2018-09-03T06:56:13.676Z,10.47
2018-09-03T06:58:42.153Z,10.37
2018-09-03T07:01:10.990Z,17.27
2018-09-03T07:03:39.242Z,10.33
2018-09-03T07:06:07.600Z,19.10
2018-09-03T07:08:36.638Z,11.40
2018-09-03T07:11:05.247Z,9.97
2018-09-03T07:13:33.589Z,11.97
2018-09-03T07:16:01.977Z,9.23
2018-09-03T07:18:30.362Z,9.37
2018-09-03T07:20:58.616Z,15.90
2018-09-03T07:23:27.123Z,10.60
2018-09-03T07:25:55.477Z,19.30
2018-09-03T07:28:23.866Z,11.30
2018-09-03T07:30:52.311Z,15.47
2018-09-03T07:33:20.636Z,11.40
2018-09-03T07:35:49.012Z,10.97
2018-09-03T07:38:17.573Z,10.73
2018-09-03T07:40:46.552Z,10.93
2018-09-03T07:43:14.851Z,10.50
2018-09-03T07:45:43.330Z,10.80
2018-09-03T07:48:11.643Z,9.37
2018-09-03T07:50:40.302Z,14.90
2018-09-03T07:53:08.749Z,30.90
2018-09-03T07:55:37.157Z,9.47
2018-09-03T07:58:06.183Z,9.13
2018-09-03T08:00:34.644Z,15.03
2018-09-03T08:03:03.024Z,9.37
2018-09-03T08:05:31.375Z,9.87
2018-09-03T08:07:59.764Z,9.40
2018-09-03T08:10:28.119Z,13.07
2018-09-03T08:12:57.167Z,8.90
2018-09-03T08:15:25.830Z,9.10
2018-09-03T08:17:54.175Z,10.00
2018-09-03T08:20:22.643Z,8.47
2018-09-03T08:22:51.029Z,10.13
2018-09-03T08:25:19.384Z,11.43
2018-09-03T08:27:48.311Z,10.43
2018-09-03T08:30:16.737Z,10.83
2018-09-03T08:32:45.113Z,10.67
2018-09-03T08:35:13.487Z,10.00
2018-09-03T08:37:41.847Z,10.90
2018-09-03T08:40:10.312Z,10.43
2018-09-03T08:42:39.026Z,8.93
2018-09-03T08:45:07.366Z,9.53
2018-09-03T08:47:35.673Z,11.53
2018-09-03T08:50:04.038Z,13.30
2018-09-03T08:52:32.432Z,9.30
2018-09-03T08:55:00.809Z,9.23
2018-09-03T08:57:29.257Z,11.50
2018-09-03T08:59:57.721Z,9.20
2018-09-03T09:02:26.081Z,8.87
2018-09-03T09:04:54.538Z,8.37
2018-09-03T09:07:22.889Z,8.77
2018-09-03T09:09:51.368Z,11.93
2018-09-03T09:12:19.852Z,8.80
2018-09-03T09:14:48.193Z,8.70
2018-09-03T09:17:16.602Z,8.70
2018-09-03T09:19:45.078Z,9.23
2018-09-03T09:22:13.518Z,7.73
2018-09-03T09:24:41.963Z,8.37
2018-09-03T09:27:10.310Z,11.60
2018-09-03T09:29:38.970Z,8.13
2018-09-03T09:32:07.522Z,8.90
2018-09-03T09:34:35.967Z,8.97
2018-09-03T09:37:04.680Z,10.00
2018-09-03T09:39:33.073Z,8.97
2018-09-03T09:42:01.481Z,9.40
2018-09-03T09:44:29.885Z,10.03
2018-09-03T09:46:58.568Z,10.93
2018-09-03T09:49:26.914Z,15.23
2018-09-03T09:51:56.334Z,10.40
2018-09-03T09:54:24.815Z,11.37
2018-09-03T09:56:53.236Z,12.07
2018-09-03T09:59:22.029Z,12.50
2018-09-03T10:01:50.326Z,19.10
2018-09-03T10:04:18.747Z,11.27
2018-09-03T10:06:47.195Z,12.00
2018-09-03T10:09:15.542Z,10.03
2018-09-03T10:11:43.891Z,14.67
2018-09-03T10:14:12.296Z,10.90
2018-09-03T10:16:40.660Z,10.70
2018-09-03T10:19:09.043Z,10.57
2018-09-03T10:21:37.457Z,11.70
2018-09-03T10:24:05.855Z,10.63
2018-09-03T10:26:34.345Z,11.70
2018-09-03T10:29:02.692Z,12.07
2018-09-03T10:31:31.351Z,11.63
2018-09-03T10:33:59.997Z,12.27
2018-09-03T10:36:28.464Z,16.13
2018-09-03T10:38:56.954Z,12.80
2018-09-03T10:41:25.677Z,14.43
2018-09-03T10:43:54.438Z,13.30
2018-09-03T10:46:23.783Z,14.37
2018-09-03T10:48:52.499Z,13.53
2018-09-03T10:51:21.327Z,12.97
2018-09-03T10:53:49.772Z,14.13
2018-09-03T10:56:18.522Z,15.53
2018-09-03T10:58:46.915Z,15.37
2018-09-03T11:01:15.578Z,17.80
2018-09-03T11:03:44.337Z,13.70
2018-09-03T11:06:13.562Z,17.60
2018-09-03T11:08:41.918Z,14.37
2018-09-03T11:11:11.113Z,14.97
2018-09-03T11:13:39.539Z,14.73
2018-09-03T11:16:08.025Z,13.13
2018-09-03T11:18:36.376Z,14.50
2018-09-03T11:21:05.033Z,15.50
2018-09-03T11:23:33.412Z,13.83
2018-09-03T11:26:01.760Z,14.30
2018-09-03T11:28:30.081Z,15.93
2018-09-03T11:30:58.693Z,13.67
2018-09-03T11:33:27.010Z,14.63
2018-09-03T11:35:55.373Z,13.20
2018-09-03T11:38:23.903Z,15.10
2018-09-03T11:40:52.819Z,14.60
2018-09-03T11:43:21.090Z,16.37
2018-09-03T11:45:49.475Z,15.10
2018-09-03T11:48:18.012Z,17.73
2018-09-03T11:50:46.517Z,14.33
2018-09-03T11:53:14.885Z,14.70
2018-09-03T11:55:43.469Z,17.73
2018-09-03T11:58:12.787Z,19.43
2018-09-03T12:00:41.142Z,16.60
2018-09-03T12:03:09.519Z,14.93
2018-09-03T12:05:37.916Z,12.93
2018-09-03T12:08:06.362Z,24.97
2018-09-03T12:10:34.717Z,22.00
2018-09-03T12:13:03.050Z,15.00
2018-09-03T12:15:35.838Z,17.40
2018-09-03T12:18:04.210Z,14.50
2018-09-03T12:20:32.657Z,15.33
2018-09-03T12:23:01.065Z,16.47
2018-09-03T12:25:29.404Z,17.83
2018-09-03T12:27:58.510Z,19.33
2018-09-03T12:30:26.873Z,20.47
2018-09-03T12:32:55.579Z,20.30
2018-09-03T12:35:24.182Z,23.00
2018-09-03T12:37:53.475Z,25.37
2018-09-03T12:40:23.183Z,18.43
2018-09-03T12:42:52.454Z,23.97
2018-09-03T12:45:24.899Z,22.17
2018-09-03T12:47:53.916Z,25.93
2018-09-03T12:50:22.823Z,21.93
2018-09-03T12:52:51.098Z,20.43
2018-09-03T12:55:20.736Z,28.90
2018-09-03T12:57:49.382Z,24.77
2018-09-03T13:00:21.622Z,24.30
2018-09-03T13:02:54.774Z,25.93
2018-09-03T13:05:23.067Z,32.73
2018-09-03T13:07:51.415Z,25.00
2018-09-03T13:10:20.595Z,24.03
2018-09-03T13:12:49.148Z,21.00
2018-09-03T13:15:17.604Z,20.93
2018-09-03T13:17:46.444Z,26.10
2018-09-03T13:20:14.734Z,25.33
2018-09-03T13:22:43.911Z,30.13
2018-09-03T13:25:12.205Z,25.63
2018-09-03T13:27:41.472Z,26.00
2018-09-03T13:30:10.609Z,28.80
2018-09-03T13:32:39.056Z,24.83
2018-09-03T13:35:07.492Z,18.13
2018-09-03T13:37:36.575Z,23.70
2018-09-03T13:40:06.316Z,19.80
2018-09-03T13:42:34.669Z,25.53
2018-09-03T13:45:03.181Z,23.17
2018-09-03T13:47:31.639Z,22.23
2018-09-03T13:49:59.962Z,20.30
2018-09-03T13:52:28.298Z,22.70
2018-09-03T13:54:57.054Z,27.60
2018-09-03T13:57:25.342Z,23.50
2018-09-03T13:59:53.776Z,22.80
2018-09-03T14:02:22.121Z,33.40
2018-09-03T14:04:50.773Z,31.77
2018-09-03T14:07:19.101Z,26.60
2018-09-03T14:09:48.163Z,31.00
2018-09-03T14:12:16.638Z,34.60
2018-09-03T14:14:45.148Z,32.17
2018-09-03T14:17:13.680Z,27.40
2018-09-03T14:19:42.263Z,24.00
2018-09-03T14:22:10.901Z,21.17
2018-09-03T14:24:39.378Z,21.87
2018-09-03T14:27:09.149Z,24.90
2018-09-03T14:29:37.872Z,24.67
2018-09-03T14:32:06.423Z,23.33
2018-09-03T14:34:34.936Z,28.93
2018-09-03T14:37:03.314Z,21.70
2018-09-03T14:39:31.699Z,27.27
2018-09-03T14:42:00.924Z,31.53
2018-09-03T14:44:29.406Z,25.40
2018-09-03T14:46:57.870Z,24.90
2018-09-03T14:49:26.560Z,25.20
2018-09-03T14:51:55.015Z,26.67
2018-09-03T14:54:23.691Z,32.63
2018-09-03T14:56:52.111Z,26.93
2018-09-03T14:59:20.549Z,32.13
2018-09-03T15:01:48.932Z,27.93
2018-09-03T15:04:17.414Z,24.90
2018-09-03T15:06:45.796Z,27.33
2018-09-03T15:09:14.599Z,27.87
2018-09-03T15:11:43.000Z,30.03
2018-09-03T15:14:11.484Z,29.67
2018-09-03T15:16:39.953Z,25.17
2018-09-03T15:19:08.281Z,31.00
2018-09-03T15:21:36.746Z,29.93
2018-09-03T15:24:06.525Z,31.73
2018-09-03T15:26:35.498Z,26.40
2018-09-03T15:29:03.844Z,25.53
2018-09-03T15:31:32.425Z,26.67
2018-09-03T15:34:00.846Z,32.40
2018-09-03T15:36:29.434Z,30.70
2018-09-03T15:38:57.644Z,27.53
2018-09-03T15:41:26.118Z,29.07
2018-09-03T15:43:54.472Z,28.20
2018-09-03T15:46:22.891Z,36.40
2018-09-03T15:48:51.342Z,32.93
2018-09-03T15:51:20.154Z,34.53
2018-09-03T15:53:48.737Z,30.47
2018-09-03T15:56:18.940Z,32.53
2018-09-03T15:58:47.256Z,30.80
2018-09-03T16:01:20.285Z,29.83
2018-09-03T16:03:48.884Z,32.27
2018-09-03T16:06:17.256Z,33.33
2018-09-03T16:08:45.759Z,34.20
2018-09-03T16:11:14.820Z,36.60
2018-09-03T16:13:43.221Z,36.07
2018-09-03T16:16:11.880Z,34.47
2018-09-03T16:18:40.389Z,41.50
2018-09-03T16:21:08.784Z,39.07
2018-09-03T16:23:37.214Z,31.33
2018-09-03T16:26:05.730Z,36.17
2018-09-03T16:28:37.068Z,32.43
2018-09-03T16:31:05.871Z,37.80
2018-09-03T16:33:34.430Z,35.23
2018-09-03T16:36:04.140Z,28.90
2018-09-03T16:38:36.386Z,35.23
2018-09-03T16:41:04.718Z,40.30
2018-09-03T16:43:33.368Z,34.00
2018-09-03T16:46:01.741Z,33.60
2018-09-03T16:48:30.142Z,33.57
2018-09-03T16:50:58.556Z,42.17
2018-09-03T16:53:26.918Z,36.67
2018-09-03T16:55:55.383Z,46.90
2018-09-03T16:58:23.857Z,38.27
2018-09-03T17:00:52.866Z,38.40
2018-09-03T17:03:21.543Z,38.23
2018-09-03T17:05:49.962Z,36.67
2018-09-03T17:08:18.649Z,36.70
2018-09-03T17:10:47.087Z,32.47
2018-09-03T17:13:15.450Z,31.90
2018-09-03T17:15:44.002Z,39.30
2018-09-03T17:18:12.432Z,42.83
2018-09-03T17:20:41.757Z,40.97
2018-09-03T17:23:10.300Z,36.23
2018-09-03T17:25:42.004Z,35.00
2018-09-03T17:28:12.867Z,36.07
2018-09-03T17:30:41.420Z,37.23
2018-09-03T17:33:10.355Z,34.83
2018-09-03T17:35:39.742Z,38.67
2018-09-03T17:38:08.300Z,45.27
2018-09-03T17:40:36.803Z,41.47
2018-09-03T17:43:05.212Z,36.70
2018-09-03T17:45:33.587Z,36.10
2018-09-03T17:48:02.354Z,37.10
2018-09-03T17:50:31.116Z,38.67
2018-09-03T17:52:59.633Z,41.00
2018-09-03T17:55:28.265Z,42.23
2018-09-03T17:57:57.169Z,41.63
2018-09-03T18:00:25.798Z,33.50
2018-09-03T18:02:55.486Z,36.97
2018-09-03T18:05:24.166Z,44.20
2018-09-03T18:07:53.333Z,42.43
2018-09-03T18:10:21.820Z,40.23
2018-09-03T18:12:50.233Z,36.37
2018-09-03T18:15:18.816Z,41.50
2018-09-03T18:17:47.414Z,53.50
2018-09-03T18:20:15.826Z,42.53
2018-09-03T18:22:44.425Z,37.90
2018-09-03T18:25:12.875Z,39.60
2018-09-03T18:27:41.707Z,46.97
2018-09-03T18:30:11.012Z,41.03
2018-09-03T18:32:40.613Z,40.77
2018-09-03T18:35:09.874Z,34.83
2018-09-03T18:37:38.482Z,38.57
2018-09-03T18:40:07.635Z,44.93
2018-09-03T18:42:37.321Z,40.17
2018-09-03T18:45:06.787Z,42.77
2018-09-03T18:47:35.618Z,50.07
2018-09-03T18:50:04.355Z,41.80
2018-09-03T18:52:33.241Z,44.30
2018-09-03T18:55:01.806Z,43.80
2018-09-03T18:57:30.499Z,45.93
2018-09-03T18:59:59.284Z,40.80
2018-09-03T19:02:28.330Z,42.37
2018-09-03T19:04:56.869Z,42.03
2018-09-03T19:07:25.884Z,42.30
2018-09-03T19:09:54.307Z,43.33
2018-09-03T19:12:23.311Z,36.20
2018-09-03T19:14:52.093Z,48.10
2018-09-03T19:17:20.705Z,43.73
2018-09-03T19:19:49.466Z,43.03
2018-09-03T19:22:18.245Z,43.07
2018-09-03T19:24:46.622Z,47.80
2018-09-03T19:27:15.028Z,42.00
2018-09-03T19:29:43.429Z,44.53
2018-09-03T19:32:11.849Z,38.87
2018-09-03T19:34:41.619Z,46.70
2018-09-03T19:37:10.286Z,41.87
2018-09-03T19:39:39.022Z,48.13
2018-09-03T19:42:07.516Z,42.50
2018-09-03T19:44:36.413Z,45.30
2018-09-03T19:47:04.770Z,46.93
2018-09-03T19:49:33.620Z,44.70
2018-09-03T19:52:02.628Z,41.70
2018-09-03T19:54:31.359Z,49.87
2018-09-03T19:57:00.035Z,43.00
2018-09-03T19:59:28.830Z,50.40
2018-09-03T20:01:57.293Z,44.40
2018-09-03T20:04:25.760Z,56.60
2018-09-03T20:06:54.344Z,44.63
2018-09-03T20:09:22.745Z,47.20
2018-09-03T20:11:51.140Z,37.97
2018-09-03T20:14:19.762Z,45.47
2018-09-03T20:16:48.181Z,49.30
2018-09-03T20:19:16.878Z,47.90
2018-09-03T20:21:45.437Z,51.43
2018-09-03T20:24:13.853Z,44.50
2018-09-03T20:26:43.432Z,44.83
2018-09-03T20:29:11.887Z,42.27
2018-09-03T20:31:40.354Z,43.63
2018-09-03T20:34:08.742Z,44.60
2018-09-03T20:36:37.065Z,41.43
2018-09-03T20:39:06.191Z,45.00
2018-09-03T20:41:35.551Z,49.83
2018-09-03T20:44:04.252Z,46.03
2018-09-03T20:46:32.632Z,42.23
2018-09-03T20:49:00.996Z,40.40
2018-09-03T20:51:29.429Z,48.50
2018-09-03T20:53:57.764Z,46.53
2018-09-03T20:56:26.227Z,44.30
2018-09-03T20:58:54.626Z,63.50
2018-09-03T21:01:23.155Z,48.60
2018-09-03T21:03:51.708Z,48.60
2018-09-03T21:06:20.165Z,51.13
2018-09-03T21:08:48.450Z,49.60
2018-09-03T21:11:16.846Z,59.63
2018-09-03T21:13:45.203Z,40.30
2018-09-03T21:16:13.480Z,50.60
2018-09-03T21:18:41.915Z,52.10
2018-09-03T21:21:10.324Z,54.67
2018-09-03T21:23:38.730Z,56.17
2018-09-03T21:26:07.119Z,52.10
2018-09-03T21:28:35.631Z,65.23
2018-09-03T21:31:03.949Z,58.73
2018-09-03T21:33:32.471Z,67.53
2018-09-03T21:36:00.793Z,71.03
2018-09-03T21:38:29.140Z,49.53
2018-09-03T21:40:57.440Z,58.23
2018-09-03T21:43:25.826Z,56.77
2018-09-03T21:45:54.152Z,61.37
2018-09-03T21:48:22.654Z,77.07
2018-09-03T21:50:50.993Z,64.60
2018-09-03T21:53:19.492Z,75.00
2018-09-03T21:55:48.442Z,71.13
2018-09-03T21:58:16.769Z,78.90
2018-09-03T22:00:45.455Z,72.70
2018-09-03T22:03:13.857Z,77.30
2018-09-03T22:05:42.399Z,76.50
2018-09-03T22:08:11.053Z,65.10
2018-09-03T22:10:39.329Z,78.30
2018-09-03T22:13:07.944Z,68.23
2018-09-03T22:15:36.252Z,64.93
2018-09-03T22:18:04.604Z,65.30
2018-09-03T22:20:33.043Z,64.33
2018-09-03T22:23:01.359Z,65.63
2018-09-03T22:25:29.690Z,63.27
2018-09-03T22:27:58.088Z,57.20
2018-09-03T22:30:26.579Z,66.57
2018-09-03T22:32:54.963Z,58.80
2018-09-03T22:35:23.365Z,57.03
2018-09-03T22:37:51.699Z,73.13
2018-09-03T22:40:21.888Z,58.70
2018-09-03T22:42:50.729Z,79.27
2018-09-03T22:45:19.072Z,65.40
2018-09-03T22:47:47.595Z,67.97
2018-09-03T22:50:15.943Z,80.33
2018-09-03T22:52:44.397Z,67.93
2018-09-03T22:55:12.694Z,74.03
2018-09-03T22:57:41.099Z,70.37
2018-09-03T23:00:09.520Z,70.33
2018-09-03T23:02:41.967Z,77.67
2018-09-03T23:05:10.468Z,72.13
2018-09-03T23:07:38.923Z,70.63
2018-09-03T23:10:07.387Z,79.10
2018-09-03T23:12:35.744Z,77.47
2018-09-03T23:15:04.225Z,75.20
2018-09-03T23:17:32.806Z,74.40
2018-09-03T23:20:01.315Z,75.57
2018-09-03T23:22:29.611Z,75.17
2018-09-03T23:24:58.014Z,75.30
2018-09-03T23:27:26.453Z,75.13
2018-09-03T23:29:54.836Z,73.50
2018-09-03T23:32:23.307Z,70.80
2018-09-03T23:34:51.773Z,67.17
2018-09-03T23:37:20.460Z,76.20
2018-09-03T23:39:49.250Z,80.87
2018-09-03T23:42:17.656Z,74.13
2018-09-03T23:44:45.975Z,78.90
2018-09-03T23:47:14.373Z,76.07
2018-09-03T23:49:42.725Z,83.47
2018-09-03T23:52:11.068Z,73.57
2018-09-03T23:54:39.371Z,90.77
2018-09-03T23:57:07.664Z,80.60
2018-09-03T23:59:36.103Z,80.13
